sensor_id;sensor_type;location;lat;lon;timestamp;pressure;altitude;pressure_sealevel;temperature;humidity
34586;BME280;20816;50.950;11.108;2023-05-16T00:01:47;98047.69;;;12.75;95.20
34586;BME280;20816;50.950;11.108;2023-05-16T00:04:14;98044.25;;;12.73;95.24
34586;BME280;20816;50.950;11.108;2023-05-16T00:06:41;98040.94;;;12.68;95.47
34586;BME280;20816;50.950;11.108;2023-05-16T00:09:07;98053.59;;;12.58;96.10
34586;BME280;20816;50.950;11.108;2023-05-16T00:11:34;98052.13;;;12.51;97.04
34586;BME280;20816;50.950;11.108;2023-05-16T00:14:01;98051.50;;;12.44;97.40
34586;BME280;20816;50.950;11.108;2023-05-16T00:16:28;98048.41;;;12.33;97.70
34586;BME280;20816;50.950;11.108;2023-05-16T00:18:56;98051.84;;;12.35;97.79
34586;BME280;20816;50.950;11.108;2023-05-16T00:21:26;98056.09;;;12.16;99.30
34586;BME280;20816;50.950;11.108;2023-05-16T00:23:53;98058.03;;;12.11;99.58
34586;BME280;20816;50.950;11.108;2023-05-16T00:26:20;98059.50;;;11.94;100.00
34586;BME280;20816;50.950;11.108;2023-05-16T00:28:47;98055.16;;;11.93;100.00
34586;BME280;20816;50.950;11.108;2023-05-16T00:31:13;98049.81;;;11.95;100.00
34586;BME280;20816;50.950;11.108;2023-05-16T00:33:40;98052.91;;;11.83;100.00
34586;BME280;20816;50.950;11.108;2023-05-16T00:36:07;98053.84;;;11.80;100.00
34586;BME280;20816;50.950;11.108;2023-05-16T00:38:33;98067.72;;;11.85;100.00
34586;BME280;20816;50.950;11.108;2023-05-16T00:41:00;98061.59;;;11.85;100.00
34586;BME280;20816;50.950;11.108;2023-05-16T00:43:27;98060.06;;;11.77;100.00
34586;BME280;20816;50.950;11.108;2023-05-16T00:45:53;98054.81;;;11.77;100.00
34586;BME280;20816;50.950;11.108;2023-05-16T00:48:20;98054.75;;;11.79;100.00
34586;BME280;20816;50.950;11.108;2023-05-16T00:50:47;98059.47;;;11.69;100.00
34586;BME280;20816;50.950;11.108;2023-05-16T00:53:14;98064.69;;;11.71;100.00
34586;BME280;20816;50.950;11.108;2023-05-16T00:55:42;98070.06;;;11.68;100.00
34586;BME280;20816;50.950;11.108;2023-05-16T00:58:10;98072.91;;;11.62;100.00
34586;BME280;20816;50.950;11.108;2023-05-16T01:00:37;98069.53;;;11.58;100.00
34586;BME280;20816;50.950;11.108;2023-05-16T01:03:07;98069.84;;;11.49;100.00
34586;BME280;20816;50.950;11.108;2023-05-16T01:05:34;98072.41;;;11.50;100.00
34586;BME280;20816;50.950;11.108;2023-05-16T01:08:00;98070.91;;;11.43;100.00
34586;BME280;20816;50.950;11.108;2023-05-16T01:10:34;98058.75;;;11.39;100.00
34586;BME280;20816;50.950;11.108;2023-05-16T01:13:11;98071.31;;;11.31;100.00
34586;BME280;20816;50.950;11.108;2023-05-16T01:15:49;98071.59;;;11.22;100.00
34586;BME280;20816;50.950;11.108;2023-05-16T01:19:14;98077.91;;;11.18;100.00
34586;BME280;20816;50.950;11.108;2023-05-16T01:21:18;98085.19;;;11.10;100.00
34586;BME280;20816;50.950;11.108;2023-05-16T01:23:53;98080.81;;;11.09;100.00
34586;BME280;20816;50.950;11.108;2023-05-16T01:26:26;98087.69;;;11.13;100.00
34586;BME280;20816;50.950;11.108;2023-05-16T01:28:54;98091.97;;;11.17;100.00
34586;BME280;20816;50.950;11.108;2023-05-16T01:31:25;98085.22;;;11.08;100.00
34586;BME280;20816;50.950;11.108;2023-05-16T01:33:52;98085.78;;;11.18;100.00
34586;BME280;20816;50.950;11.108;2023-05-16T01:39:25;98089.53;;;11.11;100.00
34586;BME280;20816;50.950;11.108;2023-05-16T01:42:02;98086.38;;;11.00;100.00
34586;BME280;20816;50.950;11.108;2023-05-16T01:46:58;98096.69;;;11.06;100.00
34586;BME280;20816;50.950;11.108;2023-05-16T01:49:45;98097.53;;;11.08;100.00
34586;BME280;20816;50.950;11.108;2023-05-16T01:52:19;98096.50;;;11.12;100.00
34586;BME280;20816;50.950;11.108;2023-05-16T01:54:51;98102.31;;;11.21;100.00
34586;BME280;20816;50.950;11.108;2023-05-16T01:57:23;98103.84;;;11.29;100.00
34586;BME280;20816;50.950;11.108;2023-05-16T01:59:50;98101.16;;;11.30;100.00
34586;BME280;20816;50.950;11.108;2023-05-16T02:02:17;98108.75;;;11.39;100.00
34586;BME280;20816;50.950;11.108;2023-05-16T02:04:44;98113.75;;;11.47;100.00
34586;BME280;20816;50.950;11.108;2023-05-16T02:07:11;98112.91;;;11.46;100.00
34586;BME280;20816;50.950;11.108;2023-05-16T02:09:40;98121.41;;;11.55;100.00
34586;BME280;20816;50.950;11.108;2023-05-16T02:12:07;98119.53;;;11.58;100.00
34586;BME280;20816;50.950;11.108;2023-05-16T02:14:33;98123.78;;;11.62;100.00
34586;BME280;20816;50.950;11.108;2023-05-16T02:17:00;98131.41;;;11.70;100.00
34586;BME280;20816;50.950;11.108;2023-05-16T02:19:27;98128.09;;;11.65;100.00
34586;BME280;20816;50.950;11.108;2023-05-16T02:21:53;98130.81;;;11.62;100.00
34586;BME280;20816;50.950;11.108;2023-05-16T02:24:20;98126.72;;;11.53;100.00
34586;BME280;20816;50.950;11.108;2023-05-16T02:26:47;98133.00;;;11.49;100.00
34586;BME280;20816;50.950;11.108;2023-05-16T02:29:13;98130.47;;;11.46;100.00
34586;BME280;20816;50.950;11.108;2023-05-16T02:31:41;98128.81;;;11.43;100.00
34586;BME280;20816;50.950;11.108;2023-05-16T02:34:08;98123.53;;;11.43;100.00
34586;BME280;20816;50.950;11.108;2023-05-16T02:36:35;98127.16;;;11.39;100.00
34586;BME280;20816;50.950;11.108;2023-05-16T02:39:02;98130.94;;;11.32;100.00
34586;BME280;20816;50.950;11.108;2023-05-16T02:41:29;98132.03;;;11.25;100.00
34586;BME280;20816;50.950;11.108;2023-05-16T02:43:57;98131.41;;;11.17;100.00
34586;BME280;20816;50.950;11.108;2023-05-16T02:46:24;98137.97;;;11.04;100.00
34586;BME280;20816;50.950;11.108;2023-05-16T02:48:52;98135.78;;;10.88;100.00
34586;BME280;20816;50.950;11.108;2023-05-16T02:51:20;98141.22;;;10.82;100.00
34586;BME280;20816;50.950;11.108;2023-05-16T02:53:48;98137.84;;;10.79;100.00
34586;BME280;20816;50.950;11.108;2023-05-16T02:56:15;98132.06;;;10.68;100.00
34586;BME280;20816;50.950;11.108;2023-05-16T02:58:43;98142.66;;;10.64;100.00
34586;BME280;20816;50.950;11.108;2023-05-16T03:01:10;98134.91;;;10.60;100.00
34586;BME280;20816;50.950;11.108;2023-05-16T03:03:36;98136.75;;;10.56;100.00
34586;BME280;20816;50.950;11.108;2023-05-16T03:06:03;98144.16;;;10.44;100.00
34586;BME280;20816;50.950;11.108;2023-05-16T03:08:30;98142.44;;;10.43;100.00
34586;BME280;20816;50.950;11.108;2023-05-16T03:10:57;98147.19;;;10.28;100.00
34586;BME280;20816;50.950;11.108;2023-05-16T03:13:23;98150.06;;;10.19;100.00
34586;BME280;20816;50.950;11.108;2023-05-16T03:15:51;98146.63;;;10.16;100.00
34586;BME280;20816;50.950;11.108;2023-05-16T03:18:18;98150.97;;;10.17;100.00
34586;BME280;20816;50.950;11.108;2023-05-16T03:20:45;98150.31;;;10.10;100.00
34586;BME280;20816;50.950;11.108;2023-05-16T03:23:12;98151.22;;;10.07;100.00
34586;BME280;20816;50.950;11.108;2023-05-16T03:25:38;98145.16;;;10.05;100.00
34586;BME280;20816;50.950;11.108;2023-05-16T03:28:05;98152.34;;;9.99;100.00
34586;BME280;20816;50.950;11.108;2023-05-16T03:30:35;98159.41;;;9.97;100.00
34586;BME280;20816;50.950;11.108;2023-05-16T03:33:02;98166.72;;;9.86;100.00
34586;BME280;20816;50.950;11.108;2023-05-16T03:35:33;98178.94;;;9.87;100.00
34586;BME280;20816;50.950;11.108;2023-05-16T03:38:02;98179.59;;;9.93;100.00
34586;BME280;20816;50.950;11.108;2023-05-16T03:40:29;98179.53;;;9.96;100.00
34586;BME280;20816;50.950;11.108;2023-05-16T03:42:55;98189.44;;;9.87;100.00
34586;BME280;20816;50.950;11.108;2023-05-16T03:45:22;98188.38;;;9.92;100.00
34586;BME280;20816;50.950;11.108;2023-05-16T03:47:49;98189.81;;;9.71;100.00
34586;BME280;20816;50.950;11.108;2023-05-16T03:50:16;98203.66;;;9.76;100.00
34586;BME280;20816;50.950;11.108;2023-05-16T03:52:43;98197.84;;;9.65;100.00
34586;BME280;20816;50.950;11.108;2023-05-16T03:55:10;98200.47;;;9.65;100.00
34586;BME280;20816;50.950;11.108;2023-05-16T03:57:40;98195.13;;;9.68;100.00
34586;BME280;20816;50.950;11.108;2023-05-16T04:00:08;98203.16;;;9.62;100.00
34586;BME280;20816;50.950;11.108;2023-05-16T04:02:39;98203.78;;;9.72;100.00
34586;BME280;20816;50.950;11.108;2023-05-16T04:05:07;98206.22;;;9.79;100.00
34586;BME280;20816;50.950;11.108;2023-05-16T04:07:35;98206.28;;;9.76;100.00
34586;BME280;20816;50.950;11.108;2023-05-16T04:10:03;98211.53;;;9.78;100.00
34586;BME280;20816;50.950;11.108;2023-05-16T04:12:30;98212.16;;;9.88;100.00
34586;BME280;20816;50.950;11.108;2023-05-16T04:14:57;98217.47;;;9.84;100.00
34586;BME280;20816;50.950;11.108;2023-05-16T04:17:24;98212.53;;;9.72;100.00
34586;BME280;20816;50.950;11.108;2023-05-16T04:19:51;98224.47;;;9.86;100.00
34586;BME280;20816;50.950;11.108;2023-05-16T04:22:20;98220.84;;;9.90;100.00
34586;BME280;20816;50.950;11.108;2023-05-16T04:24:48;98229.00;;;9.79;100.00
34586;BME280;20816;50.950;11.108;2023-05-16T04:27:15;98241.09;;;9.84;100.00
34586;BME280;20816;50.950;11.108;2023-05-16T04:29:42;98233.16;;;9.88;100.00
34586;BME280;20816;50.950;11.108;2023-05-16T04:32:08;98242.06;;;9.80;100.00
34586;BME280;20816;50.950;11.108;2023-05-16T04:34:36;98241.22;;;9.80;100.00
34586;BME280;20816;50.950;11.108;2023-05-16T04:37:06;98239.34;;;9.83;100.00
34586;BME280;20816;50.950;11.108;2023-05-16T04:39:35;98240.03;;;9.92;100.00
34586;BME280;20816;50.950;11.108;2023-05-16T04:42:02;98259.25;;;9.94;100.00
34586;BME280;20816;50.950;11.108;2023-05-16T04:44:29;98251.38;;;9.94;100.00
34586;BME280;20816;50.950;11.108;2023-05-16T04:46:56;98265.84;;;10.10;100.00
34586;BME280;20816;50.950;11.108;2023-05-16T04:49:23;98266.00;;;10.04;100.00
34586;BME280;20816;50.950;11.108;2023-05-16T04:51:49;98273.06;;;10.02;100.00
34586;BME280;20816;50.950;11.108;2023-05-16T04:54:16;98268.44;;;10.11;100.00
34586;BME280;20816;50.950;11.108;2023-05-16T04:56:43;98270.81;;;10.21;100.00
34586;BME280;20816;50.950;11.108;2023-05-16T04:59:10;98279.78;;;10.12;100.00
34586;BME280;20816;50.950;11.108;2023-05-16T05:01:36;98285.09;;;10.09;100.00
34586;BME280;20816;50.950;11.108;2023-05-16T05:04:03;98278.84;;;10.15;100.00
34586;BME280;20816;50.950;11.108;2023-05-16T05:06:30;98287.59;;;10.15;100.00
34586;BME280;20816;50.950;11.108;2023-05-16T05:08:57;98280.84;;;10.05;100.00
34586;BME280;20816;50.950;11.108;2023-05-16T05:11:23;98283.56;;;10.02;100.00
34586;BME280;20816;50.950;11.108;2023-05-16T05:13:50;98286.13;;;10.03;100.00
34586;BME280;20816;50.950;11.108;2023-05-16T05:16:18;98293.81;;;10.11;100.00
34586;BME280;20816;50.950;11.108;2023-05-16T05:18:45;98297.34;;;10.10;100.00
34586;BME280;20816;50.950;11.108;2023-05-16T05:21:12;98295.56;;;10.12;100.00
34586;BME280;20816;50.950;11.108;2023-05-16T05:23:39;98299.22;;;10.05;100.00
34586;BME280;20816;50.950;11.108;2023-05-16T05:26:05;98292.09;;;10.10;100.00
34586;BME280;20816;50.950;11.108;2023-05-16T05:28:32;98299.84;;;10.15;100.00
34586;BME280;20816;50.950;11.108;2023-05-16T05:30:59;98300.00;;;10.08;100.00
34586;BME280;20816;50.950;11.108;2023-05-16T05:33:26;98296.47;;;10.09;100.00
34586;BME280;20816;50.950;11.108;2023-05-16T05:35:54;98300.56;;;10.21;100.00
34586;BME280;20816;50.950;11.108;2023-05-16T05:38:21;98305.75;;;10.24;100.00
34586;BME280;20816;50.950;11.108;2023-05-16T05:40:48;98309.28;;;10.23;100.00
34586;BME280;20816;50.950;11.108;2023-05-16T05:43:15;98301.72;;;10.11;100.00
34586;BME280;20816;50.950;11.108;2023-05-16T05:45:42;98311.38;;;10.09;100.00
34586;BME280;20816;50.950;11.108;2023-05-16T05:48:10;98308.16;;;9.98;100.00
34586;BME280;20816;50.950;11.108;2023-05-16T05:50:37;98303.44;;;10.12;100.00
34586;BME280;20816;50.950;11.108;2023-05-16T05:53:03;98309.72;;;10.05;100.00
34586;BME280;20816;50.950;11.108;2023-05-16T05:55:30;98314.03;;;10.07;100.00
34586;BME280;20816;50.950;11.108;2023-05-16T05:57:57;98316.47;;;10.15;100.00
34586;BME280;20816;50.950;11.108;2023-05-16T06:00:24;98329.25;;;10.30;100.00
34586;BME280;20816;50.950;11.108;2023-05-16T06:02:50;98325.09;;;10.20;100.00
34586;BME280;20816;50.950;11.108;2023-05-16T06:05:17;98329.41;;;10.24;100.00
34586;BME280;20816;50.950;11.108;2023-05-16T06:07:44;98326.97;;;10.15;100.00
34586;BME280;20816;50.950;11.108;2023-05-16T06:10:11;98331.56;;;10.07;100.00
34586;BME280;20816;50.950;11.108;2023-05-16T06:12:37;98337.63;;;10.09;100.00
34586;BME280;20816;50.950;11.108;2023-05-16T06:15:05;98336.69;;;10.11;100.00
34586;BME280;20816;50.950;11.108;2023-05-16T06:17:31;98346.34;;;10.11;100.00
34586;BME280;20816;50.950;11.108;2023-05-16T06:19:58;98343.03;;;10.03;100.00
34586;BME280;20816;50.950;11.108;2023-05-16T06:22:25;98338.69;;;10.02;100.00
34586;BME280;20816;50.950;11.108;2023-05-16T06:24:52;98344.25;;;10.25;100.00
34586;BME280;20816;50.950;11.108;2023-05-16T06:27:18;98340.75;;;10.26;100.00
34586;BME280;20816;50.950;11.108;2023-05-16T06:29:45;98353.00;;;10.26;100.00
34586;BME280;20816;50.950;11.108;2023-05-16T06:32:12;98353.00;;;10.27;100.00
34586;BME280;20816;50.950;11.108;2023-05-16T06:34:39;98360.78;;;10.30;100.00
34586;BME280;20816;50.950;11.108;2023-05-16T06:37:05;98361.59;;;10.32;100.00
34586;BME280;20816;50.950;11.108;2023-05-16T06:39:32;98371.53;;;10.20;100.00
34586;BME280;20816;50.950;11.108;2023-05-16T06:41:59;98361.88;;;10.20;100.00
34586;BME280;20816;50.950;11.108;2023-05-16T06:44:26;98360.97;;;10.21;100.00
34586;BME280;20816;50.950;11.108;2023-05-16T06:46:53;98372.19;;;10.29;100.00
34586;BME280;20816;50.950;11.108;2023-05-16T06:49:20;98358.78;;;10.40;100.00
34586;BME280;20816;50.950;11.108;2023-05-16T06:51:46;98366.56;;;10.45;100.00
34586;BME280;20816;50.950;11.108;2023-05-16T06:54:13;98365.66;;;10.46;100.00
34586;BME280;20816;50.950;11.108;2023-05-16T06:56:40;98369.63;;;10.62;100.00
34586;BME280;20816;50.950;11.108;2023-05-16T06:59:07;98363.88;;;10.80;100.00
34586;BME280;20816;50.950;11.108;2023-05-16T07:01:33;98374.53;;;10.74;100.00
34586;BME280;20816;50.950;11.108;2023-05-16T07:04:00;98380.81;;;10.70;100.00
34586;BME280;20816;50.950;11.108;2023-05-16T07:06:27;98391.75;;;10.87;100.00
34586;BME280;20816;50.950;11.108;2023-05-16T07:08:54;98392.06;;;10.75;100.00
34586;BME280;20816;50.950;11.108;2023-05-16T07:11:21;98398.00;;;10.83;100.00
34586;BME280;20816;50.950;11.108;2023-05-16T07:13:47;98395.63;;;11.05;100.00
34586;BME280;20816;50.950;11.108;2023-05-16T07:16:14;98393.34;;;10.93;100.00
34586;BME280;20816;50.950;11.108;2023-05-16T07:18:41;98399.63;;;10.87;100.00
34586;BME280;20816;50.950;11.108;2023-05-16T07:21:08;98395.13;;;10.92;100.00
34586;BME280;20816;50.950;11.108;2023-05-16T07:23:34;98389.50;;;11.05;100.00
34586;BME280;20816;50.950;11.108;2023-05-16T07:26:01;98401.28;;;11.22;99.57
34586;BME280;20816;50.950;11.108;2023-05-16T07:28:28;98392.97;;;11.07;99.71
34586;BME280;20816;50.950;11.108;2023-05-16T07:30:55;98393.50;;;11.19;99.14
34586;BME280;20816;50.950;11.108;2023-05-16T07:33:24;98398.16;;;11.10;99.13
34586;BME280;20816;50.950;11.108;2023-05-16T07:35:51;98395.78;;;10.99;100.00
34586;BME280;20816;50.950;11.108;2023-05-16T07:38:33;98401.06;;;10.99;99.83
34586;BME280;20816;50.950;11.108;2023-05-16T07:41:00;98403.97;;;10.88;100.00
34586;BME280;20816;50.950;11.108;2023-05-16T07:43:26;98397.66;;;10.95;100.00
34586;BME280;20816;50.950;11.108;2023-05-16T07:45:54;98404.59;;;10.98;100.00
34586;BME280;20816;50.950;11.108;2023-05-16T07:48:21;98404.78;;;10.92;99.99
34586;BME280;20816;50.950;11.108;2023-05-16T07:50:48;98406.75;;;10.82;100.00
34586;BME280;20816;50.950;11.108;2023-05-16T07:53:15;98412.94;;;10.81;100.00
34586;BME280;20816;50.950;11.108;2023-05-16T07:55:42;98407.81;;;10.77;100.00
34586;BME280;20816;50.950;11.108;2023-05-16T07:58:08;98408.97;;;10.65;100.00
34586;BME280;20816;50.950;11.108;2023-05-16T08:00:35;98413.84;;;10.80;100.00
34586;BME280;20816;50.950;11.108;2023-05-16T08:03:02;98417.06;;;10.90;100.00
34586;BME280;20816;50.950;11.108;2023-05-16T08:05:29;98413.06;;;11.09;100.00
34586;BME280;20816;50.950;11.108;2023-05-16T08:07:56;98420.41;;;11.29;100.00
34586;BME280;20816;50.950;11.108;2023-05-16T08:10:27;98420.66;;;11.20;100.00
34586;BME280;20816;50.950;11.108;2023-05-16T08:12:53;98426.47;;;11.33;100.00
34586;BME280;20816;50.950;11.108;2023-05-16T08:15:20;98421.31;;;11.28;99.15
34586;BME280;20816;50.950;11.108;2023-05-16T08:17:47;98415.63;;;11.43;97.37
34586;BME280;20816;50.950;11.108;2023-05-16T08:20:14;98414.03;;;11.38;96.35
34586;BME280;20816;50.950;11.108;2023-05-16T08:22:41;98412.25;;;11.38;95.81
34586;BME280;20816;50.950;11.108;2023-05-16T08:25:07;98410.63;;;11.65;95.79
34586;BME280;20816;50.950;11.108;2023-05-16T08:27:34;98404.69;;;11.88;93.65
34586;BME280;20816;50.950;11.108;2023-05-16T08:30:01;98414.59;;;12.10;92.91
34586;BME280;20816;50.950;11.108;2023-05-16T08:32:28;98407.19;;;12.21;92.32
34586;BME280;20816;50.950;11.108;2023-05-16T08:34:55;98409.97;;;12.44;90.50
34586;BME280;20816;50.950;11.108;2023-05-16T08:37:22;98406.69;;;12.64;88.55
34586;BME280;20816;50.950;11.108;2023-05-16T08:39:48;98401.00;;;13.51;84.87
34586;BME280;20816;50.950;11.108;2023-05-16T08:42:15;98397.84;;;13.88;82.83
34586;BME280;20816;50.950;11.108;2023-05-16T08:44:42;98398.47;;;14.18;82.22
34586;BME280;20816;50.950;11.108;2023-05-16T08:47:17;98385.78;;;14.26;80.52
34586;BME280;20816;50.950;11.108;2023-05-16T08:49:47;98394.00;;;14.84;78.59
34586;BME280;20816;50.950;11.108;2023-05-16T08:52:17;98385.13;;;14.85;78.59
34586;BME280;20816;50.950;11.108;2023-05-16T08:54:45;98387.91;;;15.03;77.88
34586;BME280;20816;50.950;11.108;2023-05-16T08:57:20;98382.19;;;14.71;77.98
34586;BME280;20816;50.950;11.108;2023-05-16T08:59:47;98382.09;;;14.74;79.51
34586;BME280;20816;50.950;11.108;2023-05-16T09:02:15;98392.44;;;14.37;78.71
34586;BME280;20816;50.950;11.108;2023-05-16T09:04:44;98401.78;;;14.00;78.47
34586;BME280;20816;50.950;11.108;2023-05-16T09:07:11;98399.34;;;13.49;80.22
34586;BME280;20816;50.950;11.108;2023-05-16T09:09:37;98400.09;;;13.29;81.53
34586;BME280;20816;50.950;11.108;2023-05-16T09:12:04;98407.41;;;13.19;82.60
34586;BME280;20816;50.950;11.108;2023-05-16T09:14:31;98413.59;;;13.18;83.45
34586;BME280;20816;50.950;11.108;2023-05-16T09:17:05;98403.75;;;13.25;84.24
34586;BME280;20816;50.950;11.108;2023-05-16T09:19:39;98410.38;;;13.10;83.17
34586;BME280;20816;50.950;11.108;2023-05-16T09:22:13;98417.16;;;12.92;84.54
34586;BME280;20816;50.950;11.108;2023-05-16T09:24:41;98417.28;;;12.89;85.23
34586;BME280;20816;50.950;11.108;2023-05-16T09:27:13;98419.13;;;12.87;85.38
34586;BME280;20816;50.950;11.108;2023-05-16T09:29:40;98423.25;;;12.94;84.47
34586;BME280;20816;50.950;11.108;2023-05-16T09:32:12;98431.22;;;12.66;84.56
34586;BME280;20816;50.950;11.108;2023-05-16T09:34:44;98423.13;;;12.44;84.22
34586;BME280;20816;50.950;11.108;2023-05-16T09:37:11;98419.72;;;12.69;84.78
34586;BME280;20816;50.950;11.108;2023-05-16T09:39:44;98415.94;;;12.76;83.86
34586;BME280;20816;50.950;11.108;2023-05-16T09:42:16;98416.97;;;12.98;84.09
34586;BME280;20816;50.950;11.108;2023-05-16T09:44:52;98419.50;;;12.75;84.18
34586;BME280;20816;50.950;11.108;2023-05-16T09:47:20;98413.00;;;12.85;84.69
34586;BME280;20816;50.950;11.108;2023-05-16T09:49:51;98424.47;;;12.84;84.37
34586;BME280;20816;50.950;11.108;2023-05-16T09:52:18;98434.16;;;12.83;84.84
34586;BME280;20816;50.950;11.108;2023-05-16T09:54:46;98435.44;;;12.72;84.92
34586;BME280;20816;50.950;11.108;2023-05-16T09:57:19;98443.81;;;12.30;86.55
34586;BME280;20816;50.950;11.108;2023-05-16T09:59:47;98453.34;;;12.06;87.76
34586;BME280;20816;50.950;11.108;2023-05-16T10:02:14;98457.13;;;11.97;87.67
34586;BME280;20816;50.950;11.108;2023-05-16T10:04:41;98470.81;;;12.09;88.41
34586;BME280;20816;50.950;11.108;2023-05-16T10:07:08;98469.16;;;12.04;87.81
34586;BME280;20816;50.950;11.108;2023-05-16T10:09:37;98474.19;;;12.14;85.86
34586;BME280;20816;50.950;11.108;2023-05-16T10:12:07;98471.72;;;12.07;86.30
34586;BME280;20816;50.950;11.108;2023-05-16T10:14:37;98473.81;;;12.26;86.74
34586;BME280;20816;50.950;11.108;2023-05-16T10:17:06;98462.97;;;12.35;86.56
34586;BME280;20816;50.950;11.108;2023-05-16T10:19:37;98475.69;;;12.21;86.42
34586;BME280;20816;50.950;11.108;2023-05-16T10:22:05;98470.31;;;12.25;85.38
34586;BME280;20816;50.950;11.108;2023-05-16T10:24:57;98474.91;;;12.19;86.14
34586;BME280;20816;50.950;11.108;2023-05-16T10:27:26;98467.94;;;12.16;86.97
34586;BME280;20816;50.950;11.108;2023-05-16T10:29:54;98469.09;;;12.07;88.54
34586;BME280;20816;50.950;11.108;2023-05-16T10:32:22;98468.13;;;12.10;89.42
34586;BME280;20816;50.950;11.108;2023-05-16T10:34:51;98474.66;;;11.98;90.10
34586;BME280;20816;50.950;11.108;2023-05-16T10:37:18;98482.47;;;11.69;89.96
34586;BME280;20816;50.950;11.108;2023-05-16T10:39:45;98482.47;;;11.69;89.83
34586;BME280;20816;50.950;11.108;2023-05-16T10:42:12;98480.34;;;11.83;88.64
34586;BME280;20816;50.950;11.108;2023-05-16T10:44:43;98492.44;;;11.90;87.96
34586;BME280;20816;50.950;11.108;2023-05-16T10:47:27;98482.09;;;12.14;87.08
34586;BME280;20816;50.950;11.108;2023-05-16T10:49:54;98487.91;;;12.25;85.85
34586;BME280;20816;50.950;11.108;2023-05-16T10:52:32;98476.59;;;12.49;84.87
34586;BME280;20816;50.950;11.108;2023-05-16T10:55:01;98478.31;;;12.50;85.72
34586;BME280;20816;50.950;11.108;2023-05-16T10:57:31;98476.59;;;12.49;84.11
34586;BME280;20816;50.950;11.108;2023-05-16T10:59:58;98486.97;;;12.26;83.31
34586;BME280;20816;50.950;11.108;2023-05-16T11:02:29;98491.25;;;12.30;82.91
34586;BME280;20816;50.950;11.108;2023-05-16T11:05:00;98496.72;;;12.24;83.17
34586;BME280;20816;50.950;11.108;2023-05-16T11:07:32;98481.38;;;12.37;82.39
34586;BME280;20816;50.950;11.108;2023-05-16T11:10:08;98494.88;;;12.54;81.90
34586;BME280;20816;50.950;11.108;2023-05-16T11:12:36;98482.31;;;12.62;81.68
34586;BME280;20816;50.950;11.108;2023-05-16T11:15:22;98488.06;;;12.75;80.49
34586;BME280;20816;50.950;11.108;2023-05-16T11:18:02;98498.25;;;12.31;79.94
34586;BME280;20816;50.950;11.108;2023-05-16T11:20:32;98496.53;;;12.30;80.16
34586;BME280;20816;50.950;11.108;2023-05-16T11:25:49;98480.78;;;12.83;78.85
34586;BME280;20816;50.950;11.108;2023-05-16T11:28:17;98478.44;;;13.00;76.05
34586;BME280;20816;50.950;11.108;2023-05-16T11:30:51;98492.44;;;13.02;75.18
34586;BME280;20816;50.950;11.108;2023-05-16T11:33:18;98481.06;;;13.27;74.99
34586;BME280;20816;50.950;11.108;2023-05-16T11:36:04;98482.97;;;13.48;73.17
34586;BME280;20816;50.950;11.108;2023-05-16T11:38:34;98488.31;;;13.46;72.50
34586;BME280;20816;50.950;11.108;2023-05-16T11:41:06;98479.28;;;13.54;71.15
34586;BME280;20816;50.950;11.108;2023-05-16T11:43:41;98484.53;;;14.02;71.79
34586;BME280;20816;50.950;11.108;2023-05-16T11:46:13;98487.84;;;14.30;70.37
34586;BME280;20816;50.950;11.108;2023-05-16T11:48:40;98479.47;;;14.41;67.88
34586;BME280;20816;50.950;11.108;2023-05-16T11:51:08;98481.69;;;14.53;69.55
34586;BME280;20816;50.950;11.108;2023-05-16T11:53:35;98479.84;;;14.77;69.41
34586;BME280;20816;50.950;11.108;2023-05-16T11:56:03;98486.25;;;15.14;67.94
34586;BME280;20816;50.950;11.108;2023-05-16T11:58:32;98487.41;;;15.49;65.21
34586;BME280;20816;50.950;11.108;2023-05-16T12:00:59;98480.31;;;15.29;66.41
34586;BME280;20816;50.950;11.108;2023-05-16T12:03:26;98491.44;;;15.58;65.38
34586;BME280;20816;50.950;11.108;2023-05-16T12:05:53;98485.53;;;15.10;64.92
34586;BME280;20816;50.950;11.108;2023-05-16T12:08:20;98485.16;;;14.98;66.70
34586;BME280;20816;50.950;11.108;2023-05-16T12:10:49;98485.50;;;15.73;66.24
34586;BME280;20816;50.950;11.108;2023-05-16T12:13:22;98480.63;;;16.22;61.11
34586;BME280;20816;50.950;11.108;2023-05-16T12:15:50;98470.72;;;15.67;62.16
34586;BME280;20816;50.950;11.108;2023-05-16T12:18:18;98478.28;;;15.16;64.08
34586;BME280;20816;50.950;11.108;2023-05-16T12:20:47;98478.78;;;15.44;62.43
34586;BME280;20816;50.950;11.108;2023-05-16T12:23:13;98481.41;;;16.24;60.74
34586;BME280;20816;50.950;11.108;2023-05-16T12:25:46;98473.53;;;17.48;60.04
34586;BME280;20816;50.950;11.108;2023-05-16T12:28:14;98481.97;;;17.39;58.69
34586;BME280;20816;50.950;11.108;2023-05-16T12:30:42;98490.06;;;16.27;60.65
34586;BME280;20816;50.950;11.108;2023-05-16T12:33:11;98486.94;;;16.93;59.95
34586;BME280;20816;50.950;11.108;2023-05-16T12:35:43;98484.78;;;16.46;60.46
34586;BME280;20816;50.950;11.108;2023-05-16T12:38:12;98483.16;;;16.61;59.32
34586;BME280;20816;50.950;11.108;2023-05-16T12:40:41;98486.13;;;16.36;58.31
34586;BME280;20816;50.950;11.108;2023-05-16T12:43:15;98491.53;;;15.77;59.51
34586;BME280;20816;50.950;11.108;2023-05-16T12:45:49;98484.84;;;15.68;60.10
34586;BME280;20816;50.950;11.108;2023-05-16T12:48:16;98487.41;;;16.09;58.26
34586;BME280;20816;50.950;11.108;2023-05-16T12:50:43;98474.75;;;15.76;57.45
34586;BME280;20816;50.950;11.108;2023-05-16T12:53:16;98484.69;;;15.51;60.26
34586;BME280;20816;50.950;11.108;2023-05-16T12:55:43;98483.13;;;15.67;59.88
34586;BME280;20816;50.950;11.108;2023-05-16T12:58:10;98490.31;;;15.63;60.05
34586;BME280;20816;50.950;11.108;2023-05-16T13:00:38;98493.66;;;15.68;60.53